Brisbane, CA (94005)

11:04 PM PST on November 26, 2014 (GMT -0800)
Brisbane - The Ridge | Change Station
CLOSE
Current Station
Personal Weather Station
Location: Brisbane, CA
Elevation: 233 ft
Nearby Weather Stations

Elev 233 ft 37.69 °N, 122.41 °W | Updated 1 second ago

Partly Cloudy
Partly Cloudy
56.8 °F
Feels Like 56.8 °F
N
0.0
Wind Variable Wind from SW
Gusts 0.0 mph

Today
High -- | Low -- °F
--% Chance of Precip.
Yesterday
High -- | Low -- °F
Precip. -- in
7:01 AM 4:52 PM
Waxing Crescent, 26% visible
Pressure 30.21 in
Visibility 10.0 miles
Clouds Few 18000 ft
Dew Point 52 °F
Humidity 83%
Rainfall 0.00 in
Snow Depth Not available.
UV 0 out of 12
Pollen 2.50 out of 12
Air Quality Not available.
Flu Activity Not available.
METAR KSFO 270656Z 00000KT 10SM FEW180 14/10 A3021 RMK AO2 SLP230 T01390100

More Conditions Fewer Conditions

Pressure 30.21 in
Visibility 10.0 miles
Clouds Few 18000 ft
Dew Point 52 °F
Humidity 83%
Rainfall 0.00 in
Snow Depth Not available.
UV 0 out of 12
Pollen 2.50 out of 12
Air Quality Not available.
Flu Activity Not available.
METAR KSFO 270656Z 00000KT 10SM FEW180 14/10 A3021 RMK AO2 SLP230 T01390100

More Conditions Fewer Conditions

10-Day Weather Forecast

Almanac

Astronomy

Nov. 26, 2014 Rise Set
Actual Time
Civil Twilight
Nautical Twilight
Astronomical Twilight
Moon
Length of Visible Light
Length of Day
Tomorrow will be .
, % of the Moon is Illuminated

Today's Extremes

State Highs State Lows

Community

WunderPhotos

Upload Photos

1,773,966 photos uploaded!

WunderBlogs® & News

Nearby

Air Quality

  Air Quality AQ Index Pollutant
Not available.

Snow Depth

Station Depth Elevation

Earthquake Activity

City Distance Mag. Time & Date
Minimum magnitude displayed is 2.5.

Coastal Water Temperatures

Place Temperature

Nearby Weather Stations